• Join FlightAware (Why Join?)
  • Login
  • US Flag 
11:48AM EST


 

Airport Tracker/Info


-or-


 

Live Flight TrackerFlight Track Log ✈ SWA1086 ✈ 20-May-2013 ✈ KOKC - KMCI

Flight Track Log - Related Links

Times and Time Zones

All times are in EDT time to prevent confusion due to time zone crossing. See the SWA1086 flight status page for this flight to view local times or setup timezone preferences in your user account.

Time Position Orientation Groundspeed Altitude Reporting Facility
EDT Latitude Longitude Course Direction KTS MPH feet Rate Location/Type
11:03AM 35.3747 -97.5944 198° South 147 169 1,700  Level Fort Worth Center
11:04AM 35.3311 -97.6119 198° South 204 235 3,600 2,520 Climbing Fort Worth Center
11:05AM 35.3747 -97.6581 319° Northwest 253 291 6,900 2,760 Climbing Fort Worth Center
11:06AM 35.4561 -97.6786 348° North 323 372 9,200 2,400 Climbing Fort Worth Center
11:07AM 35.5478 -97.7019 348° North 342 394 11,800 2,580 Climbing Fort Worth Center
11:09AM 35.8017 -97.6061 17° North 388 447 18,500 2,400 Climbing Kansas City Center
11:10AM 35.9081 -97.5572 20° North 400 460 20,500 1,920 Climbing Kansas City Center
11:11AM 36.0203 -97.5042 21° North 421 484 22,500 1,740 Climbing Kansas City Center
11:12AM 36.1350 -97.4500 21° North 434 499 24,100 1,740 Climbing Kansas City Center
11:13AM 36.2547 -97.3936 21° North 450 518 26,100 1,860 Climbing Kansas City Center
11:14AM 36.4008 -97.3228 21° North 465 535 28,000 1,620 Climbing Kansas City Center
11:16AM 36.5256 -97.2639 21° North 474 545 29,500 1,440 Climbing Kansas City Center
11:17AM 36.6517 -97.2050 21° North 480 552 31,000 720 Climbing Kansas City Center
11:18AM 36.7783 -97.1439 21° North 486 559 31,000  Level Kansas City Center
11:19AM 36.9078 -97.0567 28° Northeast 503 579 31,000  Level Kansas City Center
11:20AM 37.0306 -96.9761 28° Northeast 498 573 31,000  Level Kansas City Center
11:21AM 37.1547 -96.8958 27° Northeast 499 574 31,000  Level Kansas City Center
11:22AM 37.2764 -96.8153 28° Northeast 494 568 31,000 -240 Level Kansas City Center
11:23AM 37.3986 -96.7342 28° Northeast 495 570 30,600 -780 Descending Kansas City Center
11:24AM 37.5469 -96.6358 28° Northeast 499 574 29,500 -780 Descending Kansas City Center
11:25AM 37.6733 -96.5542 27° Northeast 511 588 29,000 -300 Descending Kansas City Center
11:26AM 37.8053 -96.4667 28° Northeast 511 588 29,000  Level Kansas City Center
11:27AM 37.9358 -96.3786 28° Northeast 511 588 29,000  Level Kansas City Center
11:28AM 38.0669 -96.2906 28° Northeast 513 590 29,000  Level Kansas City Center
11:29AM 38.1886 -96.2086 28° Northeast 514 592 29,000  Level Kansas City Center
11:30AM 38.3031 -96.1183 32° Northeast 516 594 29,000 -60 Level Kansas City Center
11:31AM 38.4144 -95.9694 46° Northeast 518 596 28,900 -1,140 Descending Kansas City Center
11:32AM 38.5042 -95.8436 48° Northeast 503 579 26,700 -2,400 Descending Kansas City Center
11:33AM 38.6031 -95.7050 48° Northeast 475 547 24,000 -2,460 Descending Kansas City Center
11:34AM 38.6839 -95.5911 48° Northeast 456 525 21,700 -2,340 Descending Kansas City Center
11:35AM 38.7756 -95.4619 48° Northeast 441 507 19,200 -2,400 Descending Kansas City Center
11:36AM 38.8511 -95.3581 47° Northeast 419 482 16,800 -2,460 Descending Kansas City Center
11:37AM 38.9364 -95.2367 48° Northeast 413 475 14,200 -2,280 Descending Kansas City Center
11:38AM 39.0075 -95.1344 48° Northeast 406 467 12,100 -1,140 Descending Kansas City Center
11:39AM 39.0872 -95.0222 48° Northeast 385 443 11,900 -960 Descending Kansas City Center
11:40AM 39.1603 -94.9400 41° Northeast 369 425 10,200 -1,500 Descending Kansas City Center
11:41AM 39.2469 -94.8772 29° Northeast 319 367 8,900 -1,680 Descending Kansas City Center
11:42AM 39.3200 -94.8317 26° Northeast 307 353 6,800 -1,620 Descending Kansas City Center
11:43AM 39.4000 -94.7864 24° Northeast 272 313 5,600 -1,200 Descending Kansas City Center
11:44AM 39.4319 -94.7342 52° Northeast 213 245 4,400 -1,500 Descending Kansas City Center
11:45AM 39.3950 -94.6983 143° Southeast 151 174 2,500 -1,320 Descending Kansas City Center
11:46AM 39.3606 -94.7100 195° South 134 154 1,700 -720 Descending Kansas City Center
11:47AM 39.3264 -94.7197 192° South 131 151 1,100 -600 Descending Kansas City Center
11:49AM 39.2976 -94.7139 174° South  Level Estimated